UKWW/VIN METAR and TAF weather

Enter ICAO airport designator
Station Type Date Time Source
UKWW METAR 2021/02/27 10:00 UTC NOAA

UKWW 271000Z 30006MPS 9999 BKN022 03/01 Q1019 NOSIG


Station Type Date Time Source
UKWW Decoded METAR 2021/02/27 10:00 UTC NOAA

Station name not available
Feb 27, 2021 - 05:00 AM EST / 2021.02.27 1000 UTC
Wind: from the WNW (300 degrees) at 13 MPH (12 KT):0
Visibility: greater than 7 mile(s):0
Sky conditions: mostly cloudy
Temperature: 37 F (3 C)
Dew Point: 33 F (1 C)
Relative Humidity: 86%
Pressure (altimeter): 30.09 in. Hg (1019 hPa)
ob: UKWW 271000Z 30006MPS 9999 BKN022 03/01 Q1019 NOSIG
cycle: 10

Station Type Date Time Source
UKWW TAF 2010/03/21 10:45 UTC NOAA

TAF UKWW 211045Z 2112/2212 24005G10MPS 9999 SCT020 BKN070
TEMPO 2115/2207 1400 -SHRA BR SCT004 BKN007CB
FM220700 34007G12MPS 9999 SCT015 BKN100 TX11/2112Z TN01/2204Z

Example: see airport list